sensor_id;sensor_type;location;lat;lon;timestamp;pressure;altitude;pressure_sealevel;temperature
34310;BMP280;61664;48.112;11.662;2022-10-16T00:01:40;95554.84;;;16.87
34310;BMP280;61664;48.112;11.662;2022-10-16T00:04:08;95555.59;;;16.93
34310;BMP280;61664;48.112;11.662;2022-10-16T00:06:35;95556.56;;;16.90
34310;BMP280;61664;48.112;11.662;2022-10-16T00:09:02;95552.16;;;16.87
34310;BMP280;61664;48.112;11.662;2022-10-16T00:11:37;95547.03;;;16.83
34310;BMP280;61664;48.112;11.662;2022-10-16T00:14:10;95554.16;;;16.81
34310;BMP280;61664;48.112;11.662;2022-10-16T00:16:38;95550.72;;;16.75
34310;BMP280;61664;48.112;11.662;2022-10-16T00:19:05;95556.63;;;16.73
34310;BMP280;61664;48.112;11.662;2022-10-16T00:21:32;95545.59;;;16.71
34310;BMP280;61664;48.112;11.662;2022-10-16T00:24:04;95569.38;;;16.78
34310;BMP280;61664;48.112;11.662;2022-10-16T00:26:34;95566.19;;;16.74
34310;BMP280;61664;48.112;11.662;2022-10-16T00:29:01;95558.84;;;16.69
34310;BMP280;61664;48.112;11.662;2022-10-16T00:31:28;95562.25;;;16.75
34310;BMP280;61664;48.112;11.662;2022-10-16T00:33:56;95557.13;;;16.72
34310;BMP280;61664;48.112;11.662;2022-10-16T00:36:25;95567.66;;;16.70
34310;BMP280;61664;48.112;11.662;2022-10-16T00:38:56;95556.41;;;16.60
34310;BMP280;61664;48.112;11.662;2022-10-16T00:41:25;95561.06;;;16.60
34310;BMP280;61664;48.112;11.662;2022-10-16T00:44:01;95564.03;;;16.62
34310;BMP280;61664;48.112;11.662;2022-10-16T00:46:38;95554.97;;;16.54
34310;BMP280;61664;48.112;11.662;2022-10-16T00:49:12;95567.94;;;16.55
34310;BMP280;61664;48.112;11.662;2022-10-16T00:51:43;95558.38;;;16.54
34310;BMP280;61664;48.112;11.662;2022-10-16T00:54:22;95550.56;;;16.45
34310;BMP280;61664;48.112;11.662;2022-10-16T00:59:29;95544.94;;;16.37
34310;BMP280;61664;48.112;11.662;2022-10-16T01:01:57;95554.00;;;16.45
34310;BMP280;61664;48.112;11.662;2022-10-16T01:04:25;95555.22;;;16.44
34310;BMP280;61664;48.112;11.662;2022-10-16T01:07:12;95560.63;;;16.44
34310;BMP280;61664;48.112;11.662;2022-10-16T01:12:45;95545.69;;;16.27
34310;BMP280;61664;48.112;11.662;2022-10-16T01:15:55;95567.22;;;16.43
34310;BMP280;61664;48.112;11.662;2022-10-16T01:18:57;95564.03;;;16.39
34310;BMP280;61664;48.112;11.662;2022-10-16T01:21:32;95581.22;;;16.47
34310;BMP280;61664;48.112;11.662;2022-10-16T01:27:34;95586.09;;;16.43
34310;BMP280;61664;48.112;11.662;2022-10-16T01:33:17;95568.94;;;16.46
34310;BMP280;61664;48.112;11.662;2022-10-16T01:35:52;95565.28;;;16.44
34310;BMP280;61664;48.112;11.662;2022-10-16T01:38:37;95561.63;;;16.41
34310;BMP280;61664;48.112;11.662;2022-10-16T01:41:21;95577.78;;;16.53
34310;BMP280;61664;48.112;11.662;2022-10-16T01:44:14;95578.72;;;16.49
34310;BMP280;61664;48.112;11.662;2022-10-16T01:46:47;95574.84;;;16.51
34310;BMP280;61664;48.112;11.662;2022-10-16T01:49:17;95574.84;;;16.51
34310;BMP280;61664;48.112;11.662;2022-10-16T01:51:49;95579.47;;;16.50
34310;BMP280;61664;48.112;11.662;2022-10-16T01:54:20;95578.25;;;16.45
34310;BMP280;61664;48.112;11.662;2022-10-16T01:56:50;95579.97;;;16.48
34310;BMP280;61664;48.112;11.662;2022-10-16T01:59:21;95569.94;;;16.43
34310;BMP280;61664;48.112;11.662;2022-10-16T02:01:55;95578.25;;;16.45
34310;BMP280;61664;48.112;11.662;2022-10-16T02:04:37;95569.44;;;16.39
34310;BMP280;61664;48.112;11.662;2022-10-16T02:07:06;95568.97;;;16.35
34310;BMP280;61664;48.112;11.662;2022-10-16T02:09:34;95572.16;;;16.34
34310;BMP280;61664;48.112;11.662;2022-10-16T02:12:11;95565.06;;;16.25
34310;BMP280;61664;48.112;11.662;2022-10-16T02:14:40;95563.34;;;16.17
34310;BMP280;61664;48.112;11.662;2022-10-16T02:17:17;95569.00;;;16.13
34310;BMP280;61664;48.112;11.662;2022-10-16T02:19:46;95550.84;;;16.08
34310;BMP280;61664;48.112;11.662;2022-10-16T02:22:35;95563.38;;;16.11
34310;BMP280;61664;48.112;11.662;2022-10-16T02:25:25;95564.31;;;16.08
34310;BMP280;61664;48.112;11.662;2022-10-16T02:28:16;95564.59;;;16.04
34310;BMP280;61664;48.112;11.662;2022-10-16T02:30:50;95566.28;;;16.02
34310;BMP280;61664;48.112;11.662;2022-10-16T02:33:19;95566.81;;;16.00
34310;BMP280;61664;48.112;11.662;2022-10-16T02:35:48;95569.97;;;15.99
34310;BMP280;61664;48.112;11.662;2022-10-16T02:38:20;95571.19;;;15.98
34310;BMP280;61664;48.112;11.662;2022-10-16T02:40:48;95569.50;;;15.95
34310;BMP280;61664;48.112;11.662;2022-10-16T02:43:16;95572.41;;;15.97
34310;BMP280;61664;48.112;11.662;2022-10-16T02:45:43;95570.22;;;15.95
34310;BMP280;61664;48.112;11.662;2022-10-16T02:48:10;95571.19;;;15.92
34310;BMP280;61664;48.112;11.662;2022-10-16T02:50:37;95555.50;;;15.85
34310;BMP280;61664;48.112;11.662;2022-10-16T02:53:03;95564.09;;;15.84
34310;BMP280;61664;48.112;11.662;2022-10-16T02:55:30;95579.00;;;15.90
34310;BMP280;61664;48.112;11.662;2022-10-16T02:57:57;95573.88;;;15.87
34310;BMP280;61664;48.112;11.662;2022-10-16T03:00:24;95582.47;;;15.91
34310;BMP280;61664;48.112;11.662;2022-10-16T03:02:51;95590.03;;;15.87
34310;BMP280;61664;48.112;11.662;2022-10-16T03:05:18;95585.16;;;15.91
34310;BMP280;61664;48.112;11.662;2022-10-16T03:07:45;95585.16;;;15.91
34310;BMP280;61664;48.112;11.662;2022-10-16T03:10:12;95582.22;;;15.89
34310;BMP280;61664;48.112;11.662;2022-10-16T03:12:38;95578.28;;;15.90
34310;BMP280;61664;48.112;11.662;2022-10-16T03:15:06;95569.69;;;15.86
34310;BMP280;61664;48.112;11.662;2022-10-16T03:17:33;95577.56;;;15.89
34310;BMP280;61664;48.112;11.662;2022-10-16T03:20:01;95575.34;;;15.88
34310;BMP280;61664;48.112;11.662;2022-10-16T03:22:28;95579.25;;;15.87
34310;BMP280;61664;48.112;11.662;2022-10-16T03:24:55;95578.78;;;15.83
34310;BMP280;61664;48.112;11.662;2022-10-16T03:27:22;95576.31;;;15.85
34310;BMP280;61664;48.112;11.662;2022-10-16T03:29:49;95585.66;;;15.84
34310;BMP280;61664;48.112;11.662;2022-10-16T03:32:16;95581.22;;;15.81
34310;BMP280;61664;48.112;11.662;2022-10-16T03:34:43;95585.38;;;15.76
34310;BMP280;61664;48.112;11.662;2022-10-16T03:37:10;95593.94;;;15.74
34310;BMP280;61664;48.112;11.662;2022-10-16T03:39:37;95591.25;;;15.74
34310;BMP280;61664;48.112;11.662;2022-10-16T03:42:04;95593.94;;;15.74
34310;BMP280;61664;48.112;11.662;2022-10-16T03:44:31;95585.38;;;15.76
34310;BMP280;61664;48.112;11.662;2022-10-16T03:46:58;95591.97;;;15.75
34310;BMP280;61664;48.112;11.662;2022-10-16T03:49:25;95599.84;;;15.79
34310;BMP280;61664;48.112;11.662;2022-10-16T03:51:51;95609.38;;;15.85
34310;BMP280;61664;48.112;11.662;2022-10-16T03:54:18;95610.84;;;15.86
34310;BMP280;61664;48.112;11.662;2022-10-16T03:56:45;95599.59;;;15.88
34310;BMP280;61664;48.112;11.662;2022-10-16T03:59:12;95602.78;;;15.92
34310;BMP280;61664;48.112;11.662;2022-10-16T04:01:39;95608.41;;;15.99
34310;BMP280;61664;48.112;11.662;2022-10-16T04:04:06;95595.19;;;16.01
34310;BMP280;61664;48.112;11.662;2022-10-16T04:06:33;95585.91;;;16.02
34310;BMP280;61664;48.112;11.662;2022-10-16T04:09:00;95588.09;;;16.04
34310;BMP280;61664;48.112;11.662;2022-10-16T04:11:27;95592.50;;;16.07
34310;BMP280;61664;48.112;11.662;2022-10-16T04:13:54;95584.19;;;16.05
34310;BMP280;61664;48.112;11.662;2022-10-16T04:16:21;95568.75;;;15.94
34310;BMP280;61664;48.112;11.662;2022-10-16T04:18:48;95582.22;;;16.00
34310;BMP280;61664;48.112;11.662;2022-10-16T04:21:15;95583.44;;;16.04
34310;BMP280;61664;48.112;11.662;2022-10-16T04:23:42;95589.31;;;16.08
34310;BMP280;61664;48.112;11.662;2022-10-16T04:26:09;95584.66;;;16.09
34310;BMP280;61664;48.112;11.662;2022-10-16T04:28:37;95587.63;;;16.11
34310;BMP280;61664;48.112;11.662;2022-10-16T04:33:32;95596.41;;;16.17
34310;BMP280;61664;48.112;11.662;2022-10-16T04:36:00;95602.06;;;16.25
34310;BMP280;61664;48.112;11.662;2022-10-16T04:38:28;95603.28;;;16.29
34310;BMP280;61664;48.112;11.662;2022-10-16T04:40:55;95600.34;;;16.27
34310;BMP280;61664;48.112;11.662;2022-10-16T04:43:22;95600.59;;;16.35
34310;BMP280;61664;48.112;11.662;2022-10-16T04:45:49;95596.19;;;16.37
34310;BMP280;61664;48.112;11.662;2022-10-16T04:48:18;95587.09;;;16.29
34310;BMP280;61664;48.112;11.662;2022-10-16T04:50:45;95588.34;;;16.34
34310;BMP280;61664;48.112;11.662;2022-10-16T04:53:17;95596.19;;;16.37
34310;BMP280;61664;48.112;11.662;2022-10-16T04:55:44;95607.44;;;16.36
34310;BMP280;61664;48.112;11.662;2022-10-16T04:58:11;95605.72;;;16.38
34310;BMP280;61664;48.112;11.662;2022-10-16T05:00:37;95597.13;;;16.40
34310;BMP280;61664;48.112;11.662;2022-10-16T05:03:05;95574.34;;;16.35
34310;BMP280;61664;48.112;11.662;2022-10-16T05:05:36;95587.81;;;16.46
34310;BMP280;61664;48.112;11.662;2022-10-16T05:08:03;95585.13;;;16.46
34310;BMP280;61664;48.112;11.662;2022-10-16T05:10:30;95586.34;;;16.45
34310;BMP280;61664;48.112;11.662;2022-10-16T05:12:57;95603.28;;;16.52
34310;BMP280;61664;48.112;11.662;2022-10-16T05:15:24;95592.00;;;16.47
34310;BMP280;61664;48.112;11.662;2022-10-16T05:17:55;95600.31;;;16.55
34310;BMP280;61664;48.112;11.662;2022-10-16T05:20:22;95593.44;;;16.54
34310;BMP280;61664;48.112;11.662;2022-10-16T05:22:50;95587.34;;;16.54
34310;BMP280;61664;48.112;11.662;2022-10-16T05:25:17;95591.47;;;16.55
34310;BMP280;61664;48.112;11.662;2022-10-16T05:27:47;95591.25;;;16.58
34310;BMP280;61664;48.112;11.662;2022-10-16T05:30:16;95584.88;;;16.61
34310;BMP280;61664;48.112;11.662;2022-10-16T05:32:49;95601.03;;;16.67
34310;BMP280;61664;48.112;11.662;2022-10-16T05:35:18;95605.41;;;16.70
34310;BMP280;61664;48.112;11.662;2022-10-16T05:37:46;95605.94;;;16.74
34310;BMP280;61664;48.112;11.662;2022-10-16T05:40:13;95608.59;;;16.79
34310;BMP280;61664;48.112;11.662;2022-10-16T05:42:41;95606.16;;;16.81
34310;BMP280;61664;48.112;11.662;2022-10-16T05:45:10;95606.41;;;16.83
34310;BMP280;61664;48.112;11.662;2022-10-16T05:47:39;95616.69;;;16.85
34310;BMP280;61664;48.112;11.662;2022-10-16T05:50:06;95620.84;;;16.86
34310;BMP280;61664;48.112;11.662;2022-10-16T05:52:33;95624.03;;;16.90
34310;BMP280;61664;48.112;11.662;2022-10-16T05:55:00;95620.84;;;16.86
34310;BMP280;61664;48.112;11.662;2022-10-16T05:57:27;95631.88;;;16.88
34310;BMP280;61664;48.112;11.662;2022-10-16T05:59:54;95638.03;;;16.89
34310;BMP280;61664;48.112;11.662;2022-10-16T06:02:21;95637.03;;;16.86
34310;BMP280;61664;48.112;11.662;2022-10-16T06:04:48;95641.22;;;16.87
34310;BMP280;61664;48.112;11.662;2022-10-16T06:07:15;95640.97;;;16.85
34310;BMP280;61664;48.112;11.662;2022-10-16T06:09:42;95645.38;;;16.88
34310;BMP280;61664;48.112;11.662;2022-10-16T06:12:09;95641.44;;;16.89
34310;BMP280;61664;48.112;11.662;2022-10-16T06:14:36;95632.13;;;16.90
34310;BMP280;61664;48.112;11.662;2022-10-16T06:17:02;95639.22;;;16.99
34310;BMP280;61664;48.112;11.662;2022-10-16T06:19:29;95647.81;;;17.03
34310;BMP280;61664;48.112;11.662;2022-10-16T06:21:56;95648.53;;;17.03
34310;BMP280;61664;48.112;11.662;2022-10-16T06:24:25;95651.69;;;17.07
34310;BMP280;61664;48.112;11.662;2022-10-16T06:26:51;95638.94;;;17.08
34310;BMP280;61664;48.112;11.662;2022-10-16T06:29:18;95645.81;;;17.14
34310;BMP280;61664;48.112;11.662;2022-10-16T06:31:45;95648.22;;;17.18
34310;BMP280;61664;48.112;11.662;2022-10-16T06:34:12;95652.66;;;17.21
34310;BMP280;61664;48.112;11.662;2022-10-16T06:36:39;95647.25;;;17.21
34310;BMP280;61664;48.112;11.662;2022-10-16T06:39:06;95665.38;;;17.32
34310;BMP280;61664;48.112;11.662;2022-10-16T06:41:34;95657.50;;;17.34
34310;BMP280;61664;48.112;11.662;2022-10-16T06:44:05;95668.28;;;17.39
34310;BMP280;61664;48.112;11.662;2022-10-16T06:46:32;95679.28;;;17.47
34310;BMP280;61664;48.112;11.662;2022-10-16T06:48:58;95674.13;;;17.49
34310;BMP280;61664;48.112;11.662;2022-10-16T06:51:25;95683.69;;;17.55
34310;BMP280;61664;48.112;11.662;2022-10-16T06:53:55;95680.47;;;17.57
34310;BMP280;61664;48.112;11.662;2022-10-16T06:56:32;95674.34;;;17.56
34310;BMP280;61664;48.112;11.662;2022-10-16T06:58:59;95691.25;;;17.68
34310;BMP280;61664;48.112;11.662;2022-10-16T07:01:27;95686.56;;;17.74
34310;BMP280;61664;48.112;11.662;2022-10-16T07:03:54;95692.66;;;17.80
34310;BMP280;61664;48.112;11.662;2022-10-16T07:06:25;95679.84;;;17.86
34310;BMP280;61664;48.112;11.662;2022-10-16T07:08:52;95696.72;;;17.98
34310;BMP280;61664;48.112;11.662;2022-10-16T07:11:22;95692.06;;;17.99
34310;BMP280;61664;48.112;11.662;2022-10-16T07:13:51;95705.53;;;18.04
34310;BMP280;61664;48.112;11.662;2022-10-16T07:16:27;95705.75;;;18.12
34310;BMP280;61664;48.112;11.662;2022-10-16T07:19:00;95706.19;;;18.21
34310;BMP280;61664;48.112;11.662;2022-10-16T07:21:31;95711.97;;;18.37
34310;BMP280;61664;48.112;11.662;2022-10-16T07:24:03;95714.13;;;18.74
34310;BMP280;61664;48.112;11.662;2022-10-16T07:26:33;95717.25;;;19.51
34310;BMP280;61664;48.112;11.662;2022-10-16T07:29:00;95719.16;;;20.38
34310;BMP280;61664;48.112;11.662;2022-10-16T07:31:28;95707.03;;;21.24
34310;BMP280;61664;48.112;11.662;2022-10-16T07:33:57;95715.63;;;22.16
34310;BMP280;61664;48.112;11.662;2022-10-16T07:36:24;95725.44;;;22.89
34310;BMP280;61664;48.112;11.662;2022-10-16T07:38:51;95725.53;;;23.56
34310;BMP280;61664;48.112;11.662;2022-10-16T07:41:24;95736.56;;;24.01
34310;BMP280;61664;48.112;11.662;2022-10-16T07:43:53;95737.13;;;24.38
34310;BMP280;61664;48.112;11.662;2022-10-16T07:46:22;95739.25;;;24.77
34310;BMP280;61664;48.112;11.662;2022-10-16T07:48:49;95751.34;;;25.22
34310;BMP280;61664;48.112;11.662;2022-10-16T07:51:20;95750.38;;;25.74
34310;BMP280;61664;48.112;11.662;2022-10-16T07:53:47;95751.78;;;26.32
34310;BMP280;61664;48.112;11.662;2022-10-16T07:56:16;95755.06;;;26.90
34310;BMP280;61664;48.112;11.662;2022-10-16T07:58:44;95759.28;;;27.35
34310;BMP280;61664;48.112;11.662;2022-10-16T08:01:14;95755.34;;;27.82
34310;BMP280;61664;48.112;11.662;2022-10-16T08:03:47;95762.19;;;28.27
34310;BMP280;61664;48.112;11.662;2022-10-16T08:06:16;95759.56;;;28.29
34310;BMP280;61664;48.112;11.662;2022-10-16T08:08:43;95768.13;;;27.97
34310;BMP280;61664;48.112;11.662;2022-10-16T08:11:10;95767.16;;;27.75
34310;BMP280;61664;48.112;11.662;2022-10-16T08:13:37;95759.31;;;27.62
34310;BMP280;61664;48.112;11.662;2022-10-16T08:16:04;95769.88;;;28.02
34310;BMP280;61664;48.112;11.662;2022-10-16T08:18:39;95766.53;;;28.49
34310;BMP280;61664;48.112;11.662;2022-10-16T08:21:13;95762.53;;;29.08
34310;BMP280;61664;48.112;11.662;2022-10-16T08:23:47;95760.50;;;29.58
34310;BMP280;61664;48.112;11.662;2022-10-16T08:26:22;95769.25;;;30.17
34310;BMP280;61664;48.112;11.662;2022-10-16T08:28:50;95768.78;;;30.63
34310;BMP280;61664;48.112;11.662;2022-10-16T08:31:18;95777.09;;;30.95
34310;BMP280;61664;48.112;11.662;2022-10-16T08:33:45;95779.09;;;31.16
34310;BMP280;61664;48.112;11.662;2022-10-16T08:36:15;95776.88;;;31.47
34310;BMP280;61664;48.112;11.662;2022-10-16T08:38:42;95772.34;;;31.75
34310;BMP280;61664;48.112;11.662;2022-10-16T08:50:30;95789.72;;;32.98
34310;BMP280;61664;48.112;11.662;2022-10-16T08:52:58;95786.88;;;33.35
34310;BMP280;61664;48.112;11.662;2022-10-16T08:55:31;95785.19;;;33.43
34310;BMP280;61664;48.112;11.662;2022-10-16T08:58:00;95794.38;;;33.87
34310;BMP280;61664;48.112;11.662;2022-10-16T09:00:28;95791.69;;;34.43
34310;BMP280;61664;48.112;11.662;2022-10-16T09:17:34;95813.69;;;33.85
34310;BMP280;61664;48.112;11.662;2022-10-16T09:22:40;95813.25;;;34.31
34310;BMP280;61664;48.112;11.662;2022-10-16T09:25:20;95806.31;;;34.60
34310;BMP280;61664;48.112;11.662;2022-10-16T09:27:48;95810.25;;;34.84
34310;BMP280;61664;48.112;11.662;2022-10-16T09:30:19;95805.03;;;35.05
34310;BMP280;61664;48.112;11.662;2022-10-16T09:32:51;95807.78;;;35.52
34310;BMP280;61664;48.112;11.662;2022-10-16T09:35:33;95803.66;;;35.85
34310;BMP280;61664;48.112;11.662;2022-10-16T09:38:01;95821.19;;;36.05
34310;BMP280;61664;48.112;11.662;2022-10-16T09:40:40;95806.69;;;35.91
34310;BMP280;61664;48.112;11.662;2022-10-16T09:43:36;95823.34;;;35.91
34310;BMP280;61664;48.112;11.662;2022-10-16T09:46:29;95815.69;;;35.74
34310;BMP280;61664;48.112;11.662;2022-10-16T09:49:21;95816.56;;;35.62
34310;BMP280;61664;48.112;11.662;2022-10-16T09:51:48;95814.38;;;36.08
34310;BMP280;61664;48.112;11.662;2022-10-16T09:54:21;95815.47;;;36.52
34310;BMP280;61664;48.112;11.662;2022-10-16T09:56:48;95827.31;;;36.52
34310;BMP280;61664;48.112;11.662;2022-10-16T09:59:21;95823.28;;;36.55
34310;BMP280;61664;48.112;11.662;2022-10-16T10:01:54;95827.94;;;36.68
34310;BMP280;61664;48.112;11.662;2022-10-16T10:04:23;95837.81;;;37.07
34310;BMP280;61664;48.112;11.662;2022-10-16T10:06:55;95832.38;;;37.48
34310;BMP280;61664;48.112;11.662;2022-10-16T10:09:40;95830.44;;;37.92
34310;BMP280;61664;48.112;11.662;2022-10-16T10:12:27;95843.59;;;37.90
34310;BMP280;61664;48.112;11.662;2022-10-16T10:15:10;95843.59;;;37.90
34310;BMP280;61664;48.112;11.662;2022-10-16T10:17:56;95824.06;;;38.31
34310;BMP280;61664;48.112;11.662;2022-10-16T10:20:29;95836.75;;;39.03
34310;BMP280;61664;48.112;11.662;2022-10-16T10:22:57;95828.22;;;39.72
34310;BMP280;61664;48.112;11.662;2022-10-16T10:35:05;95827.69;;;40.35
34310;BMP280;61664;48.112;11.662;2022-10-16T10:37:51;95831.00;;;39.72
34310;BMP280;61664;48.112;11.662;2022-10-16T10:46:04;95825.34;;;37.87
34310;BMP280;61664;48.112;11.662;2022-10-16T10:57:41;95829.78;;;34.02
34310;BMP280;61664;48.112;11.662;2022-10-16T11:00:48;95832.38;;;33.32
34310;BMP280;61664;48.112;11.662;2022-10-16T11:06:39;95829.84;;;31.90
34310;BMP280;61664;48.112;11.662;2022-10-16T11:09:41;95828.78;;;31.16
34310;BMP280;61664;48.112;11.662;2022-10-16T11:12:33;95831.50;;;30.62
34310;BMP280;61664;48.112;11.662;2022-10-16T11:15:12;95827.22;;;30.28
34310;BMP280;61664;48.112;11.662;2022-10-16T11:18:22;95823.31;;;29.91
34310;BMP280;61664;48.112;11.662;2022-10-16T11:21:07;95819.47;;;29.55
34310;BMP280;61664;48.112;11.662;2022-10-16T11:24:04;95817.97;;;29.14
34310;BMP280;61664;48.112;11.662;2022-10-16T11:26:41;95823.16;;;28.91
34310;BMP280;61664;48.112;11.662;2022-10-16T11:29:24;95828.34;;;28.67
34310;BMP280;61664;48.112;11.662;2022-10-16T11:32:00;95820.19;;;28.41
34310;BMP280;61664;48.112;11.662;2022-10-16T11:34:32;95826.38;;;28.32
34310;BMP280;61664;48.112;11.662;2022-10-16T11:37:17;95815.06;;;28.18
34310;BMP280;61664;48.112;11.662;2022-10-16T11:39:46;95822.53;;;28.08
34310;BMP280;61664;48.112;11.662;2022-10-16T11:42:23;95824.09;;;28.01
34310;BMP280;61664;48.112;11.662;2022-10-16T11:47:42;95824.84;;;27.85
34310;BMP280;61664;48.112;11.662;2022-10-16T11:50:39;95819.59;;;27.69
34310;BMP280;61664;48.112;11.662;2022-10-16T11:55:54;95803.22;;;27.62
34310;BMP280;61664;48.112;11.662;2022-10-16T11:58:55;95805.66;;;27.58
34310;BMP280;61664;48.112;11.662;2022-10-16T12:01:30;95805.19;;;27.52
34310;BMP280;61664;48.112;11.662;2022-10-16T12:04:23;95813.09;;;27.48
34310;BMP280;61664;48.112;11.662;2022-10-16T12:07:19;95810.91;;;27.46
34310;BMP280;61664;48.112;11.662;2022-10-16T12:09:48;95816.47;;;27.56
34310;BMP280;61664;48.112;11.662;2022-10-16T12:12:40;95810.88;;;27.63
34310;BMP280;61664;48.112;11.662;2022-10-16T12:15:34;95807.72;;;27.67
34310;BMP280;61664;48.112;11.662;2022-10-16T12:18:24;95805.72;;;27.67
34310;BMP280;61664;48.112;11.662;2022-10-16T12:20:58;95812.47;;;27.66
34310;BMP280;61664;48.112;11.662;2022-10-16T12:23:55;95804.94;;;27.57
34310;BMP280;61664;48.112;11.662;2022-10-16T12:26:33;95809.28;;;27.60
34310;BMP280;61664;48.112;11.662;2022-10-16T12:32:04;95807.69;;;27.57
34310;BMP280;61664;48.112;11.662;2022-10-16T12:34:42;95807.84;;;27.59
34310;BMP280;61664;48.112;11.662;2022-10-16T12:37:24;95793.47;;;27.51
34310;BMP280;61664;48.112;11.662;2022-10-16T12:39:56;95799.03;;;27.61
34310;BMP280;61664;48.112;11.662;2022-10-16T12:42:33;95808.78;;;27.71
34310;BMP280;61664;48.112;11.662;2022-10-16T12:45:01;95801.53;;;27.76
34310;BMP280;61664;48.112;11.662;2022-10-16T12:49:58;95806.69;;;27.89
34310;BMP280;61664;48.112;11.662;2022-10-16T12:52:39;95805.63;;;27.85
34310;BMP280;61664;48.112;11.662;2022-10-16T12:55:18;95803.22;;;27.89
34310;BMP280;61664;48.112;11.662;2022-10-16T13:03:29;95808.03;;;27.98
34310;BMP280;61664;48.112;11.662;2022-10-16T13:06:24;95807.59;;;28.01
34310;BMP280;61664;48.112;11.662;2022-10-16T13:17:36;95811.44;;;28.25
34310;BMP280;61664;48.112;11.662;2022-10-16T13:20:40;95807.00;;;28.30
34310;BMP280;61664;48.112;11.662;2022-10-16T13:23:34;95812.22;;;28.35
34310;BMP280;61664;48.112;11.662;2022-10-16T13:29:05;95808.16;;;28.36
34310;BMP280;61664;48.112;11.662;2022-10-16T13:31:32;95817.56;;;28.43
34310;BMP280;61664;48.112;11.662;2022-10-16T13:34:01;95825.25;;;28.44
34310;BMP280;61664;48.112;11.662;2022-10-16T13:36:34;95818.63;;;28.47
34310;BMP280;61664;48.112;11.662;2022-10-16T13:39:14;95813.41;;;28.51
34310;BMP280;61664;48.112;11.662;2022-10-16T13:41:44;95808.63;;;28.52
34310;BMP280;61664;48.112;11.662;2022-10-16T13:44:18;95811.41;;;28.61
34310;BMP280;61664;48.112;11.662;2022-10-16T13:46:57;95816.06;;;28.68
34310;BMP280;61664;48.112;11.662;2022-10-16T13:49:24;95816.34;;;28.82
34310;BMP280;61664;48.112;11.662;2022-10-16T13:51:59;95803.03;;;28.88
34310;BMP280;61664;48.112;11.662;2022-10-16T13:54:27;95820.69;;;29.04
34310;BMP280;61664;48.112;11.662;2022-10-16T13:57:05;95816.63;;;29.15
34310;BMP280;61664;48.112;11.662;2022-10-16T13:59:54;95823.16;;;29.29
34310;BMP280;61664;48.112;11.662;2022-10-16T14:02:38;95794.06;;;29.26
34310;BMP280;61664;48.112;11.662;2022-10-16T14:05:10;95829.56;;;29.82
34310;BMP280;61664;48.112;11.662;2022-10-16T14:07:38;95827.63;;;30.25
34310;BMP280;61664;48.112;11.662;2022-10-16T14:10:20;95823.38;;;31.18
34310;BMP280;61664;48.112;11.662;2022-10-16T14:13:04;95830.19;;;32.43
34310;BMP280;61664;48.112;11.662;2022-10-16T14:15:35;95834.81;;;33.26
34310;BMP280;61664;48.112;11.662;2022-10-16T14:18:02;95827.44;;;33.83
34310;BMP280;61664;48.112;11.662;2022-10-16T14:20:33;95833.88;;;34.55
34310;BMP280;61664;48.112;11.662;2022-10-16T14:23:22;95831.16;;;34.71
34310;BMP280;61664;48.112;11.662;2022-10-16T14:25:50;95834.44;;;34.68
34310;BMP280;61664;48.112;11.662;2022-10-16T14:28:22;95844.66;;;34.49
34310;BMP280;61664;48.112;11.662;2022-10-16T14:30:59;95824.19;;;34.14
34310;BMP280;61664;48.112;11.662;2022-10-16T14:36:11;95830.16;;;33.56
34310;BMP280;61664;48.112;11.662;2022-10-16T14:38:42;95830.91;;;33.31
34310;BMP280;61664;48.112;11.662;2022-10-16T14:41:10;95836.13;;;33.25
34310;BMP280;61664;48.112;11.662;2022-10-16T14:43:40;95830.19;;;33.30
34310;BMP280;61664;48.112;11.662;2022-10-16T14:46:15;95826.28;;;33.61
34310;BMP280;61664;48.112;11.662;2022-10-16T14:48:47;95838.75;;;34.14
34310;BMP280;61664;48.112;11.662;2022-10-16T14:51:19;95830.50;;;34.73
34310;BMP280;61664;48.112;11.662;2022-10-16T14:53:46;95841.03;;;35.19
34310;BMP280;61664;48.112;11.662;2022-10-16T14:56:25;95844.81;;;35.41
34310;BMP280;61664;48.112;11.662;2022-10-16T14:58:52;95846.22;;;35.42
34310;BMP280;61664;48.112;11.662;2022-10-16T15:01:20;95835.88;;;35.27
34310;BMP280;61664;48.112;11.662;2022-10-16T15:03:47;95841.00;;;35.03
34310;BMP280;61664;48.112;11.662;2022-10-16T15:06:15;95836.50;;;34.67
34310;BMP280;61664;48.112;11.662;2022-10-16T15:08:43;95841.94;;;34.36
34310;BMP280;61664;48.112;11.662;2022-10-16T15:11:15;95841.81;;;33.93
34310;BMP280;61664;48.112;11.662;2022-10-16T15:13:42;95849.84;;;33.48
34310;BMP280;61664;48.112;11.662;2022-10-16T15:16:15;95849.97;;;32.99
34310;BMP280;61664;48.112;11.662;2022-10-16T15:18:43;95848.31;;;32.58
34310;BMP280;61664;48.112;11.662;2022-10-16T15:21:31;95838.75;;;32.00
34310;BMP280;61664;48.112;11.662;2022-10-16T15:23:59;95857.00;;;31.71
34310;BMP280;61664;48.112;11.662;2022-10-16T15:26:29;95841.50;;;31.21
34310;BMP280;61664;48.112;11.662;2022-10-16T15:28:56;95861.88;;;30.95
34310;BMP280;61664;48.112;11.662;2022-10-16T15:31:24;95854.28;;;30.63
34310;BMP280;61664;48.112;11.662;2022-10-16T15:33:53;95860.56;;;30.32
34310;BMP280;61664;48.112;11.662;2022-10-16T15:36:29;95857.06;;;30.01
34310;BMP280;61664;48.112;11.662;2022-10-16T15:38:57;95862.50;;;29.80
34310;BMP280;61664;48.112;11.662;2022-10-16T15:41:23;95856.44;;;29.52
34310;BMP280;61664;48.112;11.662;2022-10-16T15:43:51;95860.81;;;29.27
34310;BMP280;61664;48.112;11.662;2022-10-16T15:46:21;95855.59;;;29.02
34310;BMP280;61664;48.112;11.662;2022-10-16T15:48:50;95859.16;;;28.76
34310;BMP280;61664;48.112;11.662;2022-10-16T15:51:18;95874.91;;;28.56
34310;BMP280;61664;48.112;11.662;2022-10-16T15:53:45;95871.19;;;28.34
34310;BMP280;61664;48.112;11.662;2022-10-16T15:56:13;95868.09;;;28.11
34310;BMP280;61664;48.112;11.662;2022-10-16T15:58:42;95871.88;;;27.89
34310;BMP280;61664;48.112;11.662;2022-10-16T16:01:09;95863.19;;;27.65
34310;BMP280;61664;48.112;11.662;2022-10-16T16:03:38;95868.38;;;27.44
34310;BMP280;61664;48.112;11.662;2022-10-16T16:06:11;95872.25;;;27.24